Time;durP1;ratioP1;P1;durP2;ratioP2;P2;SDS_P1;SDS_P2;PMS_P1;PMS_P2;Temp;Humidity;BMP_temperature;BMP_pressure;BME280_temperature;BME280_humidity;BME280_pressure;Samples;Min_cycle;Max_cycle;Signal;HPM_P1;HPM_P2
2021/03/17 00:00:11;;;;;;;4.03;2.35;;;4.90;99.90;;;;;;5003996;28;20046;-90
2021/03/17 00:03:12;;;;;;;4.72;2.50;;;4.90;99.90;;;;;;4999303;28;20037;-90
2021/03/17 00:06:05;;;;;;;4.18;2.10;;;4.80;99.90;;;;;;4991423;28;20069;-91
2021/03/17 00:08:45;;;;;;;3.75;2.25;;;4.80;99.90;;;;;;5005227;28;20121;-91
2021/03/17 00:11:42;;;;;;;3.67;1.95;;;4.80;99.90;;;;;;5001523;28;20038;-92
2021/03/17 00:14:54;;;;;;;4.00;2.45;;;4.70;99.90;;;;;;5008377;28;20044;-93
2021/03/17 00:18:21;;;;;;;;;;;;;;;;;;;;;
2021/03/17 00:24:06;;;;;;;;;;;;;;;;;;;;;
2021/03/17 00:27:11;;;;;;;;;;;;;;;;;;;;;
2021/03/17 00:33:43;;;;;;;3.88;2.40;;;4.30;99.90;;;;;;5000926;28;20044;-91
2021/03/17 00:37:04;;;;;;;;;;;;;;;;;;;;;
2021/03/17 00:43:26;;;;;;;;;;;;;;;;;;;;;
2021/03/17 00:50:06;;;;;;;;;;;;;;;;;;;;;
2021/03/17 00:56:48;;;;;;;;;;;;;;;;;;;;;
2021/03/17 00:59:30;;;;;;;3.92;2.47;;;4.50;99.90;;;;;;4991385;28;20056;-90
2021/03/17 01:02:36;;;;;;;4.18;2.50;;;4.50;99.90;;;;;;5004503;28;20658;-89
2021/03/17 01:08:30;;;;;;;4.25;2.78;;;4.50;99.90;;;;;;5007392;28;20042;-89
2021/03/17 01:11:59;;;;;;;;;;;;;;;;;;;;;
2021/03/17 01:14:48;;;;;;;;;;;;;;;;;;;;;
2021/03/17 01:17:29;;;;;;;;;;;;;;;;;;;;;
2021/03/17 01:24:21;;;;;;;3.92;2.53;;;4.60;99.90;;;;;;5004348;28;20030;-91
2021/03/17 01:30:25;;;;;;;5.20;3.40;;;4.60;99.90;;;;;;5006867;28;20034;-91
2021/03/17 01:33:31;;;;;;;4.78;2.95;;;4.60;99.90;;;;;;5004507;28;20037;-91
2021/03/17 01:40:12;;;;;;;4.05;2.70;;;4.70;99.90;;;;;;4982699;28;20041;-93
2021/03/17 01:43:07;;;;;;;4.80;3.10;;;4.70;99.90;;;;;;5006540;28;20037;-91
2021/03/17 01:46:17;;;;;;;4.10;2.88;;;4.60;99.90;;;;;;5006807;28;20061;-92
2021/03/17 01:49:06;;;;;;;4.10;3.05;;;4.60;99.90;;;;;;5006990;28;20042;-92
2021/03/17 01:54:57;;;;;;;4.15;2.72;;;4.60;99.90;;;;;;4984617;28;20037;-92
2021/03/17 01:57:42;;;;;;;;;;;4.60;99.90;;;;;;5012320;28;20042;-92
2021/03/17 02:00:14;;;;;;;4.00;2.67;;;4.60;99.90;;;;;;5014479;28;19924;-91
2021/03/17 02:03:15;;;;;;;4.35;3.13;;;4.60;99.90;;;;;;5020211;28;20030;-93
2021/03/17 02:12:45;;;;;;;5.18;3.42;;;4.70;99.90;;;;;;5000938;28;20045;-92
2021/03/17 02:16:18;;;;;;;;;;;;;;;;;;;;;
2021/03/17 02:19:05;;;;;;;;;;;;;;;;;;;;;
2021/03/17 02:22:00;;;;;;;;;;;;;;;;;;;;;
2021/03/17 02:25:01;;;;;;;;;;;;;;;;;;;;;
2021/03/17 02:28:45;;;;;;;;;;;;;;;;;;;;;
2021/03/17 02:31:51;;;;;;;5.50;4.20;;;4.70;99.90;;;;;;5006011;28;20054;-91
2021/03/17 02:38:40;;;;;;;;;;;;;;;;;;;;;
2021/03/17 02:41:41;;;;;;;5.78;4.28;;;4.70;99.90;;;;;;4953384;28;20054;-92
2021/03/17 02:44:36;;;;;;;;;;;;;;;;;;;;;
2021/03/17 02:51:33;;;;;;;;;;;;;;;;;;;;;
2021/03/17 02:55:14;;;;;;;;;;;;;;;;;;;;;
2021/03/17 02:57:27;;;;;;;5.30;3.88;;;4.80;99.90;;;;;;4944707;28;20043;-92
2021/03/17 03:00:22;;;;;;;;;;;;;;;;;;;;;
2021/03/17 03:03:12;;;;;;;5.55;3.97;;;4.90;99.90;;;;;;5012806;28;20032;-93
2021/03/17 03:05:49;;;;;;;5.53;3.60;;;4.80;99.90;;;;;;4995975;28;20097;-92
2021/03/17 03:12:57;;;;;;;4.63;3.33;;;4.90;99.90;;;;;;5012978;28;20427;-93
2021/03/17 03:15:27;;;;;;;4.22;3.13;;;4.90;99.90;;;;;;5002614;28;20096;-92
2021/03/17 03:18:00;;;;;;;5.70;3.72;;;4.90;99.90;;;;;;4989600;28;20042;-91
2021/03/17 03:20:47;;;;;;;;;;;;;;;;;;;;;
2021/03/17 03:23:33;;;;;;;5.25;3.67;;;4.90;99.90;;;;;;4998027;28;20269;-92
2021/03/17 03:26:13;;;;;;;5.40;3.53;;;5.00;99.90;;;;;;5014559;28;20026;-90
2021/03/17 03:29:16;;;;;;;4.97;3.55;;;5.00;99.90;;;;;;5008348;28;20034;-92
2021/03/17 03:31:58;;;;;;;4.85;3.40;;;5.00;99.90;;;;;;5007689;28;20034;-91
2021/03/17 03:34:27;;;;;;;4.43;2.83;;;5.00;99.90;;;;;;4990689;28;20044;-89
2021/03/17 03:37:30;;;;;;;;;;;;;;;;;;;;;
2021/03/17 03:40:02;;;;;;;4.70;3.67;;;5.00;99.90;;;;;;5013334;28;20064;-91
2021/03/17 03:42:47;;;;;;;;;;;;;;;;;;;;;
2021/03/17 03:52:19;;;;;;;;;;;;;;;;;;;;;
2021/03/17 03:55:30;;;;;;;7.72;5.55;;;5.00;99.90;;;;;;5000328;28;20053;-93
2021/03/17 04:02:01;;;;;;;6.53;4.72;;;5.00;99.90;;;;;;5013364;28;20050;-92
2021/03/17 04:05:17;;;;;;;;;;;;;;;;;;;;;
2021/03/17 04:08:40;;;;;;;6.80;5.05;;;5.00;99.90;;;;;;5000625;28;20038;-92
2021/03/17 04:11:46;;;;;;;6.32;5.00;;;5.00;99.90;;;;;;4957230;28;20038;-92
2021/03/17 04:14:45;;;;;;;5.68;4.57;;;5.00;99.90;;;;;;4964540;28;20455;-91
2021/03/17 04:17:38;;;;;;;;;;;;;;;;;;;;;
2021/03/17 04:20:48;;;;;;;;;;;;;;;;;;;;;
2021/03/17 04:23:39;;;;;;;;;;;;;;;;;;;;;
2021/03/17 04:26:33;;;;;;;6.07;4.20;;;5.00;99.90;;;;;;4963807;28;20032;-92
2021/03/17 04:29:32;;;;;;;5.63;4.68;;;5.10;99.90;;;;;;4954705;28;20117;-89
2021/03/17 04:32:38;;;;;;;;;;;;;;;;;;;;;
2021/03/17 04:41:27;;;;;;;5.78;3.72;;;5.10;99.90;;;;;;4941908;28;20037;-92
2021/03/17 04:44:15;;;;;;;6.45;4.90;;;5.10;99.90;;;;;;5008207;28;20103;-91
2021/03/17 04:47:13;;;;;;;5.28;3.78;;;5.10;99.90;;;;;;5012838;28;20030;-91
2021/03/17 04:50:19;;;;;;;;;;;;;;;;;;;;;
2021/03/17 04:53:41;;;;;;;5.53;4.40;;;5.10;99.90;;;;;;5017941;28;20098;-92
2021/03/17 04:56:44;;;;;;;5.65;4.32;;;5.20;99.90;;;;;;5010447;28;20088;-92
2021/03/17 04:59:34;;;;;;;5.63;4.07;;;5.10;99.90;;;;;;5009952;28;20577;-92
2021/03/17 05:02:23;;;;;;;;;;;;;;;;;;;;;
2021/03/17 05:05:16;;;;;;;;;;;;;;;;;;;;;
2021/03/17 05:08:02;;;;;;;;;;;;;;;;;;;;;
2021/03/17 05:10:57;;;;;;;5.20;4.15;;;5.10;99.90;;;;;;5005442;28;20034;-92
2021/03/17 05:13:54;;;;;;;;;;;;;;;;;;;;;
2021/03/17 05:16:59;;;;;;;6.72;4.30;;;5.10;99.90;;;;;;5010803;28;20097;-91
2021/03/17 05:20:06;;;;;;;6.55;4.78;;;5.10;99.90;;;;;;4996023;28;20040;-91
2021/03/17 05:22:59;;;;;;;7.18;4.05;;;5.10;99.90;;;;;;5005840;28;20038;-92
2021/03/17 05:25:40;;;;;;;6.25;3.92;;;5.10;99.90;;;;;;5006086;28;20048;-91
2021/03/17 05:28:44;;;;;;;;;;;;;;;;;;;;;
2021/03/17 05:31:30;;;;;;;;;;;;;;;;;;;;;
2021/03/17 05:34:48;;;;;;;4.07;3.15;;;5.10;99.90;;;;;;5007060;28;20040;-92
2021/03/17 05:37:31;;;;;;;3.40;2.50;;;5.10;99.90;;;;;;4986774;28;20383;-94
2021/03/17 05:43:12;;;;;;;4.15;2.88;;;5.10;99.90;;;;;;5009181;28;20124;-91
2021/03/17 05:46:27;;;;;;;4.57;2.80;;;5.10;99.90;;;;;;4999066;28;20030;-92
2021/03/17 05:49:55;;;;;;;3.05;1.98;;;5.10;99.90;;;;;;5001069;28;20425;-93
2021/03/17 05:52:29;;;;;;;6.15;2.70;;;5.00;99.90;;;;;;4956951;28;20094;-92
2021/03/17 05:55:10;;;;;;;3.58;2.35;;;5.00;99.90;;;;;;4971091;28;20621;-91
2021/03/17 05:57:58;;;;;;;5.18;3.85;;;5.10;99.90;;;;;;4979580;28;20039;-93
2021/03/17 06:00:44;;;;;;;;;;;;;;;;;;;;;
2021/03/17 06:03:40;;;;;;;5.45;2.85;;;5.00;99.90;;;;;;4996494;28;20393;-91
2021/03/17 06:06:33;;;;;;;4.75;2.75;;;5.00;99.90;;;;;;4990712;28;20026;-91
2021/03/17 06:09:19;;;;;;;5.45;2.92;;;5.00;99.90;;;;;;5005760;28;20039;-91
2021/03/17 06:11:59;;;;;;;4.88;3.08;;;5.00;99.90;;;;;;5009071;28;20022;-91
2021/03/17 06:14:57;;;;;;;5.03;2.80;;;5.00;99.90;;;;;;4997014;28;20057;-91
2021/03/17 06:17:54;;;;;;;4.53;2.47;;;5.00;99.90;;;;;;5009961;28;20033;-91
2021/03/17 06:20:36;;;;;;;4.40;2.40;;;5.00;99.90;;;;;;5011264;28;20107;-91
2021/03/17 06:23:05;;;;;;;4.43;2.83;;;5.00;99.90;;;;;;5010748;28;20030;-91
2021/03/17 06:25:48;;;;;;;6.82;2.78;;;5.00;99.90;;;;;;4997048;28;20073;-92
2021/03/17 06:29:03;;;;;;;;;;;;;;;;;;;;;
2021/03/17 06:32:19;;;;;;;;;;;;;;;;;;;;;
2021/03/17 06:35:04;;;;;;;;;;;;;;;;;;;;;
2021/03/17 06:37:56;;;;;;;;;;;;;;;;;;;;;
2021/03/17 06:41:07;;;;;;;3.40;2.30;;;5.10;99.90;;;;;;5029691;28;20037;-92
2021/03/17 06:44:08;;;;;;;4.57;2.88;;;5.10;99.90;;;;;;5010985;28;20024;-92
2021/03/17 06:46:50;;;;;;;4.90;2.83;;;5.20;99.90;;;;;;4998564;28;20033;-92
2021/03/17 06:50:12;;;;;;;4.35;2.70;;;5.20;99.90;;;;;;5002396;28;20026;-92
2021/03/17 06:53:07;;;;;;;4.22;2.92;;;5.30;99.90;;;;;;5005733;28;20117;-93
2021/03/17 06:55:49;;;;;;;5.15;3.05;;;5.30;99.90;;;;;;4997408;28;20036;-93
2021/03/17 06:59:00;;;;;;;4.30;3.15;;;5.30;99.90;;;;;;5005039;28;20386;-92
2021/03/17 07:02:06;;;;;;;;;;;;;;;;;;;;;
2021/03/17 07:05:45;;;;;;;6.88;2.70;;;5.30;99.90;;;;;;4998463;28;20109;-92
2021/03/17 07:08:52;;;;;;;4.70;2.78;;;5.30;99.90;;;;;;4968511;28;20034;-92
2021/03/17 07:15:37;;;;;;;4.03;2.85;;;5.30;99.90;;;;;;5006743;28;20473;-92
2021/03/17 07:18:58;;;;;;;;;;;;;;;;;;;;;
2021/03/17 07:22:12;;;;;;;3.20;2.33;;;5.40;99.90;;;;;;4927215;29;20049;-92
2021/03/17 07:25:18;;;;;;;3.63;2.42;;;5.50;99.90;;;;;;4952289;29;20047;-91
2021/03/17 07:34:48;;;;;;;;;;;;;;;;;;;;;
2021/03/17 07:40:55;;;;;;;3.28;1.77;;;6.20;99.90;;;;;;4981956;28;20600;-89
2021/03/17 07:44:14;;;;;;;3.92;2.20;;;6.30;99.90;;;;;;4994989;28;20477;-89
2021/03/17 07:47:03;;;;;;;3.13;1.63;;;6.40;99.90;;;;;;4927930;29;20035;-90
2021/03/17 07:49:50;;;;;;;5.18;1.70;;;6.40;99.90;;;;;;4979082;28;20026;-90
2021/03/17 07:52:40;;;;;;;;;;;;;;;;;;;;;
2021/03/17 07:59:11;;;;;;;1.67;0.93;;;6.30;99.90;;;;;;4924826;29;20079;-91
2021/03/17 08:05:54;;;;;;;3.15;1.10;;;6.20;99.90;;;;;;4979751;28;20129;-90
2021/03/17 08:27:37;;;;;;;;;;;;;;;;;;;;;
2021/03/17 08:31:20;;;;;;;;;;;;;;;;;;;;;
2021/03/17 08:34:21;;;;;;;2.17;0.80;;;6.50;99.90;;;;;;4859066;29;20871;-91
2021/03/17 08:37:21;;;;;;;2.83;0.80;;;6.40;99.90;;;;;;4849809;29;20040;-91
2021/03/17 08:44:18;;;;;;;3.47;0.80;;;6.60;99.90;;;;;;4898831;29;20036;-91
2021/03/17 08:47:34;;;;;;;;;;;;;;;;;;;;;
2021/03/17 08:58:10;;;;;;;5.78;1.25;;;7.00;99.90;;;;;;4956042;28;20123;-92
2021/03/17 09:05:07;;;;;;;;;;;;;;;;;;;;;
2021/03/17 09:15:19;;;;;;;;;;;;;;;;;;;;;
2021/03/17 09:18:19;;;;;;;;;;;;;;;;;;;;;
2021/03/17 09:22:00;;;;;;;3.53;0.80;;;6.20;99.90;;;;;;5000305;28;20479;-91
2021/03/17 09:28:54;;;;;;;;;;;;;;;;;;;;;
2021/03/17 09:31:51;;;;;;;;;;;;;;;;;;;;;
2021/03/17 09:34:32;;;;;;;3.28;0.77;;;6.40;99.90;;;;;;4984760;28;20049;-91
2021/03/17 09:37:32;;;;;;;2.75;0.60;;;6.20;99.90;;;;;;5013005;28;20117;-90
2021/03/17 09:48:38;;;;;;;;;;;;;;;;;;;;;
2021/03/17 09:58:10;;;;;;;;;;;;;;;;;;;;;
2021/03/17 10:09:15;;;;;;;;;;;;;;;;;;;;;
2021/03/17 10:15:32;;;;;;;;;;;;;;;;;;;;;
2021/03/17 10:22:09;;;;;;;;;;;;;;;;;;;;;
2021/03/17 10:28:34;;;;;;;4.25;0.70;;;8.60;99.90;;;;;;4962085;28;20029;-90
2021/03/17 10:31:57;;;;;;;2.83;0.70;;;8.70;99.90;;;;;;5011686;28;20053;-92
2021/03/17 10:50:01;;;;;;;;;;;;;;;;;;;;;
2021/03/17 10:57:14;;;;;;;;;;;;;;;;;;;;;
2021/03/17 11:22:32;;;;;;;;;;;;;;;;;;;;;
2021/03/17 11:44:32;;;;;;;6.25;0.88;;;10.40;98.90;;;;;;4695939;30;20045;-92
2021/03/17 12:09:17;;;;;;;;;;;;;;;;;;;;;
2021/03/17 12:30:04;;;;;;;;;;;;;;;;;;;;;
2021/03/17 12:39:42;;;;;;;;;;;;;;;;;;;;;
2021/03/17 13:00:47;;;;;;;;;;;;;;;;;;;;;
2021/03/17 13:04:00;;;;;;;;;;;;;;;;;;;;;
2021/03/17 13:07:14;;;;;;;;;;;;;;;;;;;;;
2021/03/17 13:10:34;;;;;;;2.33;0.77;;;7.20;99.90;;;;;;4719582;30;20059;-89
2021/03/17 13:13:50;;;;;;;2.08;0.60;;;7.10;99.90;;;;;;4719025;30;20041;-91
2021/03/17 13:23:36;;;;;;;2.78;0.60;;;8.20;99.90;;;;;;4894377;29;20532;-90
2021/03/17 13:33:47;;;;;;;2.00;0.93;;;10.10;99.90;;;;;;4872072;29;20543;-90
2021/03/17 13:36:17;;;;;;;1.98;0.50;;;9.90;99.90;;;;;;4907572;29;20127;-90
2021/03/17 13:39:17;;;;;;;;;;;;;;;;;;;;;
2021/03/17 13:41:46;;;;;;;3.45;1.08;;;9.00;99.90;;;;;;4881222;29;20045;-90
2021/03/17 13:51:15;;;;;;;1.90;0.47;;;8.10;99.90;;;;;;4772830;30;20165;-91
2021/03/17 13:54:19;;;;;;;2.67;0.75;;;8.00;99.90;;;;;;4896567;29;20444;-91
2021/03/17 13:57:03;;;;;;;;;;;;;;;;;;;;;
2021/03/17 14:00:22;;;;;;;;;;;;;;;;;;;;;
2021/03/17 14:03:17;;;;;;;;;;;;;;;;;;;;;
2021/03/17 14:06:07;;;;;;;3.55;0.98;;;8.20;99.90;;;;;;4853826;29;20577;-90
2021/03/17 14:08:57;;;;;;;2.35;0.60;;;8.10;99.90;;;;;;4937350;29;20356;-92
2021/03/17 14:11:34;;;;;;;1.67;0.60;;;8.00;99.90;;;;;;4940223;29;20031;-90
2021/03/17 14:14:23;;;;;;;1.52;0.40;;;7.90;99.90;;;;;;4938907;29;20023;-91
2021/03/17 14:17:06;;;;;;;;;;;;;;;;;;;;;
2021/03/17 14:19:46;;;;;;;4.38;0.73;;;7.90;99.90;;;;;;4953180;29;20051;-89
2021/03/17 14:25:46;;;;;;;;;;;;;;;;;;;;;
2021/03/17 14:31:33;;;;;;;;;;;;;;;;;;;;;
2021/03/17 14:34:16;;;;;;;2.22;0.68;;;9.40;99.90;;;;;;5033125;28;20029;-88
2021/03/17 14:36:49;;;;;;;1.25;0.50;;;9.10;99.90;;;;;;4994415;28;20029;-89
2021/03/17 14:39:36;;;;;;;0.75;0.45;;;9.00;99.90;;;;;;5002204;28;20040;-89
2021/03/17 14:42:05;;;;;;;1.75;0.50;;;8.90;99.90;;;;;;5016354;28;20087;-90
2021/03/17 14:44:42;;;;;;;3.58;0.70;;;8.90;99.90;;;;;;5011336;28;20667;-90
2021/03/17 14:47:18;;;;;;;1.52;0.57;;;8.80;99.90;;;;;;5032346;28;20029;-89
2021/03/17 14:49:54;;;;;;;3.10;0.90;;;8.80;99.90;;;;;;5011588;28;20029;-90
2021/03/17 14:52:29;;;;;;;3.67;0.93;;;8.70;99.90;;;;;;5005646;28;20069;-90
2021/03/17 14:55:18;;;;;;;;;;;;;;;;;;;;;
2021/03/17 15:01:01;;;;;;;1.40;0.50;;;9.10;99.90;;;;;;5021419;28;20137;-90
2021/03/17 15:06:19;;;;;;;1.65;0.50;;;9.40;99.90;;;;;;4985123;28;20032;-89
2021/03/17 15:09:12;;;;;;;0.93;0.50;;;9.30;99.90;;;;;;5030269;28;20088;-88
2021/03/17 15:12:08;;;;;;;2.33;0.47;;;9.20;99.90;;;;;;5010202;28;20029;-89
2021/03/17 15:17:44;;;;;;;1.10;0.30;;;8.50;99.90;;;;;;4995767;28;20056;-88
2021/03/17 15:23:41;;;;;;;3.70;0.60;;;8.40;99.90;;;;;;5002987;28;20474;-88
2021/03/17 15:26:09;;;;;;;4.03;0.60;;;8.50;99.90;;;;;;5015166;28;20026;-89
2021/03/17 15:29:12;;;;;;;;;;;;;;;;;;;;;
2021/03/17 15:34:50;;;;;;;3.28;0.60;;;8.30;99.90;;;;;;5007311;28;20183;-90
2021/03/17 15:37:37;;;;;;;2.92;0.60;;;8.30;99.90;;;;;;4990535;28;20560;-91
2021/03/17 15:40:41;;;;;;;1.42;0.70;;;8.30;99.90;;;;;;5010691;28;20071;-87
2021/03/17 15:43:31;;;;;;;3.95;0.73;;;8.30;99.90;;;;;;4989170;28;20069;-89
2021/03/17 15:46:00;;;;;;;3.90;0.75;;;8.20;99.90;;;;;;5014039;28;20022;-90
2021/03/17 15:48:50;;;;;;;;;;;;;;;;;;;;;
2021/03/17 15:51:24;;;;;;;1.88;0.63;;;8.10;99.90;;;;;;5028948;28;20037;-90
2021/03/17 15:54:10;;;;;;;4.40;0.80;;;8.00;99.90;;;;;;5031023;28;20593;-88
2021/03/17 15:56:57;;;;;;;1.42;0.57;;;8.00;99.90;;;;;;4972675;28;20042;-93
2021/03/17 15:59:28;;;;;;;4.25;0.75;;;7.90;99.90;;;;;;5012440;28;20033;-90
2021/03/17 16:01:57;;;;;;;2.47;0.60;;;7.70;99.90;;;;;;5012442;28;20037;-92
2021/03/17 16:05:00;;;;;;;;;;;;;;;;;;;;;
2021/03/17 16:08:18;;;;;;;2.17;0.90;;;7.40;99.90;;;;;;5029494;28;20052;-91
2021/03/17 16:11:11;;;;;;;1.73;0.60;;;7.20;99.90;;;;;;4989961;28;20110;-93
2021/03/17 16:13:53;;;;;;;;;;;;;;;;;;;;;
2021/03/17 16:16:52;;;;;;;0.90;0.40;;;6.90;99.90;;;;;;4972322;28;19931;-92
2021/03/17 16:22:18;;;;;;;2.53;0.60;;;6.60;99.90;;;;;;5020666;28;20247;-90
2021/03/17 16:24:56;;;;;;;1.75;0.70;;;6.50;99.90;;;;;;5004100;28;20029;-91
2021/03/17 16:27:59;;;;;;;1.30;0.70;;;6.50;99.90;;;;;;4996837;28;20057;-91
2021/03/17 16:31:06;;;;;;;1.80;0.80;;;6.50;99.90;;;;;;5022400;28;20033;-93
2021/03/17 16:34:32;;;;;;;;;;;;;;;;;;;;;
2021/03/17 16:37:45;;;;;;;2.20;0.50;;;6.60;99.90;;;;;;4943907;28;20041;-93
2021/03/17 16:40:49;;;;;;;1.20;0.60;;;6.70;99.90;;;;;;4938429;28;20023;-92
2021/03/17 16:43:27;;;;;;;2.17;0.65;;;6.70;99.90;;;;;;4935896;28;20114;-90
2021/03/17 16:46:12;;;;;;;1.25;0.55;;;6.80;99.90;;;;;;4990981;28;20140;-92
2021/03/17 16:48:58;;;;;;;1.35;0.85;;;6.80;99.90;;;;;;5023991;28;20036;-92
2021/03/17 16:52:04;;;;;;;;;;;;;;;;;;;;;
2021/03/17 16:57:50;;;;;;;2.15;0.98;;;6.90;99.90;;;;;;5022696;28;20053;-92
2021/03/17 17:00:43;;;;;;;1.52;0.60;;;6.90;99.90;;;;;;5004087;28;20183;-91
2021/03/17 17:03:55;;;;;;;1.50;0.40;;;6.80;99.90;;;;;;5016966;28;20409;-91
2021/03/17 17:06:44;;;;;;;1.83;0.40;;;6.80;99.90;;;;;;5040106;28;20037;-92
2021/03/17 17:09:23;;;;;;;1.65;0.90;;;6.80;99.90;;;;;;5017532;28;20116;-91
2021/03/17 17:12:01;;;;;;;1.27;0.45;;;6.80;99.90;;;;;;5015412;28;20120;-91
2021/03/17 17:14:49;;;;;;;1.05;0.40;;;6.80;99.90;;;;;;5016265;28;20022;-92
2021/03/17 17:17:29;;;;;;;1.75;0.45;;;6.80;99.90;;;;;;5024318;28;20044;-92
2021/03/17 17:20:26;;;;;;;;;;;;;;;;;;;;;
2021/03/17 17:23:07;;;;;;;1.25;0.40;;;6.80;99.90;;;;;;5029321;28;20033;-92
2021/03/17 17:25:46;;;;;;;1.02;0.52;;;6.80;99.90;;;;;;5023310;28;20408;-93
2021/03/17 17:28:30;;;;;;;2.15;0.80;;;6.80;99.90;;;;;;5001867;28;20033;-93
2021/03/17 17:35:32;;;;;;;2.30;0.50;;;6.60;99.90;;;;;;5024737;28;20032;-94
2021/03/17 17:38:20;;;;;;;0.90;0.40;;;6.40;99.90;;;;;;5018209;28;20454;-93
2021/03/17 17:40:49;;;;;;;1.67;0.50;;;6.20;99.90;;;;;;5007631;28;20037;-93
2021/03/17 17:44:20;;;;;;;;;;;;;;;;;;;;;
2021/03/17 17:47:13;;;;;;;;;;;;;;;;;;;;;
2021/03/17 17:54:10;;;;;;;;;;;;;;;;;;;;;
2021/03/17 18:00:22;;;;;;;1.52;0.50;;;5.70;99.90;;;;;;4929441;29;20040;-93
2021/03/17 18:06:57;;;;;;;;;;;;;;;;;;;;;
2021/03/17 18:10:09;;;;;;;;;;;;;;;;;;;;;
2021/03/17 18:13:28;;;;;;;;;;;;;;;;;;;;;
2021/03/17 18:26:49;;;;;;;;;;;;;;;;;;;;;
2021/03/17 18:48:34;;;;;;;2.17;0.88;;;5.10;99.90;;;;;;4806641;29;20149;-94
2021/03/17 18:52:13;;;;;;;;;;;;;;;;;;;;;
2021/03/17 19:02:43;;;;;;;1.27;0.82;;;4.80;99.90;;;;;;4618604;31;20054;-92
2021/03/17 19:09:17;;;;;;;;;;;;;;;;;;;;;
2021/03/17 19:12:07;;;;;;;;;;;;;;;;;;;;;
2021/03/17 19:14:40;;;;;;;2.25;0.95;;;4.60;99.90;;;;;;4785510;29;20065;-92
2021/03/17 19:17:12;;;;;;;2.22;1.15;;;4.50;99.90;;;;;;4869089;29;20060;-91
2021/03/17 19:20:10;;;;;;;2.97;1.10;;;4.50;99.90;;;;;;4874701;29;20053;-92
2021/03/17 19:22:57;;;;;;;5.68;1.13;;;4.50;99.90;;;;;;4874154;29;20039;-93
2021/03/17 19:25:39;;;;;;;;;;;;;;;;;;;;;
2021/03/17 19:28:58;;;;;;;;;;;;;;;;;;;;;
2021/03/17 19:32:09;;;;;;;3.17;1.40;;;4.30;99.90;;;;;;4866239;29;20047;-93
2021/03/17 19:35:03;;;;;;;;;;;;;;;;;;;;;
2021/03/17 19:37:35;;;;;;;4.93;1.42;;;4.20;99.90;;;;;;4963519;28;20062;-90
2021/03/17 19:40:22;;;;;;;3.20;1.38;;;4.20;99.90;;;;;;5003659;28;20045;-90
2021/03/17 19:43:19;;;;;;;3.83;1.45;;;4.20;99.90;;;;;;4998247;28;20018;-91
2021/03/17 19:49:58;;;;;;;3.53;1.52;;;4.10;99.90;;;;;;4961918;28;20069;-91
2021/03/17 19:52:49;;;;;;;2.80;1.10;;;4.00;99.90;;;;;;4999335;28;20379;-90
2021/03/17 19:55:52;;;;;;;4.45;1.10;;;3.90;99.90;;;;;;5006484;28;20456;-89
2021/03/17 19:58:25;;;;;;;2.47;1.00;;;3.90;99.90;;;;;;5007257;28;20188;-91
2021/03/17 20:01:02;;;;;;;3.22;1.85;;;3.80;99.90;;;;;;4993003;28;20037;-91
2021/03/17 20:03:56;;;;;;;;;;;;;;;;;;;;;
2021/03/17 20:06:34;;;;;;;3.03;1.30;;;3.80;99.90;;;;;;5002725;28;20036;-90
2021/03/17 20:10:09;;;;;;;;;;;;;;;;;;;;;
2021/03/17 20:12:59;;;;;;;2.15;1.00;;;3.70;99.90;;;;;;5028689;28;20033;-92
2021/03/17 20:16:06;;;;;;;2.55;1.00;;;3.60;99.90;;;;;;4988759;28;20033;-91
2021/03/17 20:18:58;;;;;;;6.35;1.48;;;3.60;99.90;;;;;;5008451;28;20033;-90
2021/03/17 20:22:00;;;;;;;;;;;;;;;;;;;;;
2021/03/17 20:25:15;;;;;;;;;;;;;;;;;;;;;
2021/03/17 20:28:05;;;;;;;5.15;1.08;;;3.40;99.90;;;;;;4973265;28;20021;-90
2021/03/17 20:30:42;;;;;;;3.58;1.05;;;3.40;99.90;;;;;;4998586;28;20501;-90
2021/03/17 20:33:44;;;;;;;3.13;1.60;;;3.40;99.90;;;;;;5013174;28;20565;-90
2021/03/17 20:36:34;;;;;;;2.42;1.08;;;3.30;99.90;;;;;;4981964;28;20049;-90
2021/03/17 20:39:06;;;;;;;4.20;1.60;;;3.30;99.90;;;;;;5014909;28;20025;-91
2021/03/17 20:41:57;;;;;;;2.92;1.48;;;3.30;99.90;;;;;;5005600;28;20026;-91
2021/03/17 20:44:29;;;;;;;3.30;1.42;;;3.20;99.90;;;;;;5009751;28;20060;-91
2021/03/17 20:46:58;;;;;;;3.85;1.40;;;3.20;99.90;;;;;;4991099;28;20168;-91
2021/03/17 20:49:55;;;;;;;;;;;;;;;;;;;;;
2021/03/17 20:52:33;;;;;;;3.30;1.45;;;3.20;99.90;;;;;;5024910;28;20050;-91
2021/03/17 20:55:03;;;;;;;3.17;1.40;;;3.20;99.90;;;;;;5029178;28;20033;-90
2021/03/17 20:57:35;;;;;;;3.25;1.25;;;3.20;99.90;;;;;;4996488;28;20030;-91
2021/03/17 21:00:17;;;;;;;4.90;1.63;;;3.10;99.90;;;;;;5000311;28;20117;-90
2021/03/17 21:03:16;;;;;;;3.05;1.60;;;3.10;99.90;;;;;;5027345;28;20029;-91
2021/03/17 21:06:07;;;;;;;2.83;1.20;;;3.10;99.90;;;;;;5002593;28;20029;-90
2021/03/17 21:09:09;;;;;;;;;;;;;;;;;;;;;
2021/03/17 21:15:06;;;;;;;2.22;1.48;;;3.00;99.90;;;;;;5024261;28;20038;-88
2021/03/17 21:17:50;;;;;;;4.35;1.60;;;3.00;99.90;;;;;;5031812;28;20037;-91
2021/03/17 21:24:09;;;;;;;;;;;;;;;;;;;;;
2021/03/17 21:27:31;;;;;;;5.22;1.88;;;2.90;99.90;;;;;;5031617;28;20533;-90
2021/03/17 21:30:37;;;;;;;4.18;1.65;;;2.80;99.90;;;;;;5001072;28;20036;-91
2021/03/17 21:33:40;;;;;;;3.67;1.90;;;2.80;99.90;;;;;;5021111;28;20033;-91
2021/03/17 21:36:26;;;;;;;;;;;;;;;;;;;;;
2021/03/17 21:39:03;;;;;;;6.32;1.63;;;2.80;99.90;;;;;;5027648;28;20053;-90
2021/03/17 21:41:45;;;;;;;4.20;1.75;;;2.80;99.90;;;;;;5016698;28;20037;-90
2021/03/17 21:44:21;;;;;;;5.00;1.92;;;2.80;99.90;;;;;;5001505;28;20191;-91
2021/03/17 21:46:48;;;;;;;4.18;1.60;;;2.70;99.90;;;;;;5016013;28;20466;-90
2021/03/17 21:49:18;;;;;;;3.80;1.77;;;2.80;99.90;;;;;;4999428;28;20091;-90
2021/03/17 21:52:11;;;;;;;4.85;1.95;;;2.70;99.90;;;;;;5027842;28;20509;-90
2021/03/17 21:55:03;;;;;;;4.70;2.00;;;2.70;99.90;;;;;;5022899;28;20042;-91
2021/03/17 22:04:32;;;;;;;;;;;;;;;;;;;;;
2021/03/17 22:07:01;;;;;;;5.15;1.98;;;2.60;99.90;;;;;;5017929;28;20025;-89
2021/03/17 22:09:58;;;;;;;5.82;2.10;;;2.50;99.90;;;;;;5032406;28;20080;-89
2021/03/17 22:13:06;;;;;;;3.50;1.67;;;2.50;99.90;;;;;;5032557;28;20114;-90
2021/03/17 22:16:05;;;;;;;6.50;1.98;;;2.40;99.90;;;;;;5001280;28;20132;-90
2021/03/17 22:18:43;;;;;;;6.57;1.90;;;2.40;99.90;;;;;;4999284;28;20037;-90
2021/03/17 22:21:12;;;;;;;5.18;2.00;;;2.40;99.90;;;;;;5014113;28;20349;-91
2021/03/17 22:27:10;;;;;;;7.70;2.95;;;2.30;99.90;;;;;;5003529;28;20060;-90
2021/03/17 22:29:41;;;;;;;7.43;2.00;;;2.30;99.90;;;;;;5028770;28;20029;-90
2021/03/17 22:32:10;;;;;;;5.90;1.85;;;2.20;99.90;;;;;;5014165;28;20030;-91
2021/03/17 22:34:44;;;;;;;6.75;1.77;;;2.30;99.90;;;;;;5010606;28;20126;-90
2021/03/17 22:37:44;;;;;;;;;;;;;;;;;;;;;
2021/03/17 22:43:13;;;;;;;10.02;2.60;;;2.20;99.90;;;;;;5033146;28;20033;-90
2021/03/17 22:45:57;;;;;;;4.90;2.00;;;2.20;99.90;;;;;;5015356;28;20029;-90
2021/03/17 22:48:30;;;;;;;5.75;1.48;;;2.20;99.90;;;;;;5000797;28;20021;-90
2021/03/17 22:51:18;;;;;;;;;;;2.20;99.90;;;;;;5016133;28;20044;-92
2021/03/17 22:53:54;;;;;;;5.47;2.05;;;2.20;99.90;;;;;;5012997;28;20613;-90
2021/03/17 22:56:31;;;;;;;;;;;;;;;;;;;;;
2021/03/17 22:59:24;;;;;;;3.70;1.73;;;2.10;99.90;;;;;;5029172;28;20041;-89
2021/03/17 23:02:00;;;;;;;4.82;1.65;;;2.10;99.90;;;;;;5013343;28;20037;-90
2021/03/17 23:05:14;;;;;;;;;;;;;;;;;;;;;
2021/03/17 23:07:50;;;;;;;4.82;1.50;;;2.00;99.90;;;;;;5002992;28;20385;-90
2021/03/17 23:10:39;;;;;;;8.35;2.22;;;2.00;99.90;;;;;;5026298;28;20056;-90
2021/03/17 23:13:15;;;;;;;5.88;1.58;;;2.00;99.90;;;;;;5002434;28;20029;-90
2021/03/17 23:15:56;;;;;;;6.50;1.98;;;1.90;99.90;;;;;;4996168;28;20069;-89
2021/03/17 23:18:58;;;;;;;6.68;1.73;;;2.00;99.90;;;;;;5014783;28;20540;-90
2021/03/17 23:22:32;;;;;;;4.20;1.50;;;1.90;99.90;;;;;;4955481;28;20030;-91
2021/03/17 23:25:07;;;;;;;5.63;1.80;;;1.90;99.90;;;;;;5024773;28;20052;-90
2021/03/17 23:27:38;;;;;;;;;;;1.90;99.90;;;;;;4997492;28;20128;-90
2021/03/17 23:30:20;;;;;;;7.00;2.00;;;1.90;99.90;;;;;;4995847;28;19913;-90
2021/03/17 23:33:00;;;;;;;5.90;2.08;;;1.90;99.90;;;;;;5011330;28;20045;-90
2021/03/17 23:35:38;;;;;;;5.28;2.00;;;1.90;99.90;;;;;;5012140;28;20380;-90
2021/03/17 23:38:23;;;;;;;;;;;;;;;;;;;;;
2021/03/17 23:41:15;;;;;;;;;;;;;;;;;;;;;
2021/03/17 23:43:46;;;;;;;5.65;2.15;;;1.80;99.90;;;;;;5018680;28;20339;-91
2021/03/17 23:46:25;;;;;;;5.78;2.00;;;1.80;99.90;;;;;;5030126;28;20032;-90
2021/03/17 23:49:06;;;;;;;;;;;;;;;;;;;;;
2021/03/17 23:51:43;;;;;;;5.53;1.95;;;1.70;99.90;;;;;;4986151;28;20586;-91
2021/03/17 23:54:21;;;;;;;3.63;1.63;;;1.70;99.90;;;;;;5029092;28;20033;-90
2021/03/17 23:56:50;;;;;;;6.00;1.98;;;1.70;99.90;;;;;;5012403;28;20025;-89
2021/03/17 23:59:31;;;;;;;4.15;1.73;;;1.60;99.90;;;;;;4994652;28;20117;-90
